Time;durP1;ratioP1;P1;durP2;ratioP2;P2;SDS_P1;SDS_P2;PMS_P1;PMS_P2;Temp;Humidity;BMP_temperature;BMP_pressure;BME280_temperature;BME280_humidity;BME280_pressure;Samples;Min_cycle;Max_cycle;Signal;HPM_P1;HPM_P2
2020/12/19 00:00:30;;;;;;;21.95;15.25;;;;;;;;;;4976599;28;20074;-72
2020/12/19 00:02:56;;;;;;;21.25;14.35;;;;;;;;;;4976614;28;20050;-73
2020/12/19 00:05:21;;;;;;;23.02;16.75;;;;;;;;;;4976399;28;20071;-73
2020/12/19 00:07:46;;;;;;;25.63;16.58;;;;;;;;;;4976373;28;20031;-72
2020/12/19 00:10:12;;;;;;;22.40;15.60;;;;;;;;;;4976363;28;20043;-72
2020/12/19 00:12:37;;;;;;;20.77;14.63;;;;;;;;;;4991432;28;20126;-72
2020/12/19 00:15:03;;;;;;;18.45;13.27;;;;;;;;;;4976261;28;20031;-72
2020/12/19 00:17:28;;;;;;;19.13;13.50;;;;;;;;;;4975715;28;20404;-72
2020/12/19 00:19:54;;;;;;;20.23;13.82;;;;;;;;;;4976300;28;20408;-72
2020/12/19 00:22:21;;;;;;;29.65;19.33;;;;;;;;;;4991355;28;20047;-72
2020/12/19 00:24:47;;;;;;;24.38;16.85;;;;;;;;;;4976477;28;20039;-72
2020/12/19 00:27:13;;;;;;;26.75;17.50;;;;;;;;;;4976173;28;20035;-72
2020/12/19 00:29:38;;;;;;;23.85;16.58;;;;;;;;;;4976211;28;20041;-73
2020/12/19 00:32:05;;;;;;;21.55;15.18;;;;;;;;;;4976191;28;20039;-72
2020/12/19 00:34:30;;;;;;;24.30;15.93;;;;;;;;;;4975873;28;20097;-72
2020/12/19 00:36:56;;;;;;;36.28;21.60;;;;;;;;;;4976026;28;20520;-72
2020/12/19 00:39:21;;;;;;;42.95;25.25;;;;;;;;;;4976088;28;20038;-72
2020/12/19 00:41:46;;;;;;;39.58;23.17;;;;;;;;;;4975780;28;20045;-72
2020/12/19 00:44:12;;;;;;;30.60;20.45;;;;;;;;;;4990470;28;20077;-72
2020/12/19 00:46:37;;;;;;;26.15;18.30;;;;;;;;;;4975370;28;20042;-72
2020/12/19 00:49:04;;;;;;;25.90;18.40;;;;;;;;;;4990824;28;20043;-72
2020/12/19 00:51:29;;;;;;;22.95;15.77;;;;;;;;;;4975611;28;20519;-72
2020/12/19 00:53:55;;;;;;;21.98;16.42;;;;;;;;;;4975648;28;20070;-72
2020/12/19 00:56:26;;;;;;;22.58;16.48;;;;;;;;;;4974963;28;20038;-72
2020/12/19 00:58:52;;;;;;;21.27;14.55;;;;;;;;;;4975553;28;20052;-72
2020/12/19 01:01:23;;;;;;;27.52;17.60;;;;;;;;;;4975551;28;20043;-72
2020/12/19 01:03:50;;;;;;;35.67;21.33;;;;;;;;;;4975765;28;20042;-72
2020/12/19 01:06:17;;;;;;;36.95;20.55;;;;;;;;;;4975309;28;20038;-72
2020/12/19 01:08:45;;;;;;;32.35;21.10;;;;;;;;;;4975344;28;20039;-72
2020/12/19 01:11:18;;;;;;;32.83;20.63;;;;;;;;;;4990298;28;20424;-72
2020/12/19 01:13:43;;;;;;;56.75;29.48;;;;;;;;;;4975230;28;20041;-72
2020/12/19 01:16:13;;;;;;;49.28;28.95;;;;;;;;;;4975278;28;20118;-72
2020/12/19 01:18:39;;;;;;;49.45;28.65;;;;;;;;;;4974439;28;20039;-72
2020/12/19 01:21:11;;;;;;;39.15;25.27;;;;;;;;;;4990225;28;20035;-72
2020/12/19 01:23:37;;;;;;;32.97;22.02;;;;;;;;;;4974693;28;20046;-72
2020/12/19 01:26:02;;;;;;;31.40;20.48;;;;;;;;;;4974766;28;20034;-72
2020/12/19 01:28:28;;;;;;;41.67;24.42;;;;;;;;;;4974842;28;20519;-72
2020/12/19 01:30:53;;;;;;;42.95;26.35;;;;;;;;;;4974969;28;20061;-72
2020/12/19 01:33:19;;;;;;;37.60;25.20;;;;;;;;;;4974413;28;20113;-72
2020/12/19 01:35:45;;;;;;;35.05;23.10;;;;;;;;;;4973652;28;20126;-72
2020/12/19 01:38:10;;;;;;;39.83;25.38;;;;;;;;;;4974505;28;20046;-72
2020/12/19 01:40:35;;;;;;;37.50;22.50;;;;;;;;;;4974690;28;20038;-72
2020/12/19 01:43:03;;;;;;;36.53;24.27;;;;;;;;;;4989709;28;20018;-72
2020/12/19 01:45:29;;;;;;;38.88;24.65;;;;;;;;;;4974865;28;20401;-72
2020/12/19 01:47:54;;;;;;;37.88;22.65;;;;;;;;;;4974568;28;20049;-72
2020/12/19 01:50:20;;;;;;;39.42;24.90;;;;;;;;;;4989734;28;20152;-75
2020/12/19 01:52:45;;;;;;;38.40;24.63;;;;;;;;;;4989601;28;20479;-72
2020/12/19 01:55:11;;;;;;;30.70;21.67;;;;;;;;;;4974440;28;20488;-72
2020/12/19 01:57:39;;;;;;;33.63;23.23;;;;;;;;;;4973922;28;20046;-72
2020/12/19 02:00:05;;;;;;;32.17;22.02;;;;;;;;;;4973955;28;20042;-72
2020/12/19 02:02:30;;;;;;;30.15;21.33;;;;;;;;;;4974696;28;20043;-72
2020/12/19 02:04:55;;;;;;;36.88;23.23;;;;;;;;;;4974341;28;20042;-72
2020/12/19 02:07:23;;;;;;;36.50;24.02;;;;;;;;;;4974307;28;20081;-73
2020/12/19 02:09:49;;;;;;;33.33;21.17;;;;;;;;;;4974244;28;20039;-73
2020/12/19 02:12:14;;;;;;;33.90;22.52;;;;;;;;;;4974333;28;20484;-72
2020/12/19 02:14:40;;;;;;;34.72;21.27;;;;;;;;;;4974344;28;20113;-72
2020/12/19 02:17:11;;;;;;;30.70;21.15;;;;;;;;;;4973491;28;20023;-72
2020/12/19 02:19:37;;;;;;;34.95;22.98;;;;;;;;;;4974359;28;20077;-72
2020/12/19 02:22:05;;;;;;;36.67;23.50;;;;;;;;;;4974244;28;20067;-72
2020/12/19 02:24:30;;;;;;;34.38;22.38;;;;;;;;;;4974127;28;20046;-72
2020/12/19 02:26:57;;;;;;;32.13;21.35;;;;;;;;;;4974114;28;20039;-72
2020/12/19 02:29:24;;;;;;;32.97;21.40;;;;;;;;;;4989496;28;20038;-72
2020/12/19 02:31:52;;;;;;;32.08;21.13;;;;;;;;;;4974386;28;20047;-72
2020/12/19 02:34:18;;;;;;;29.25;20.50;;;;;;;;;;4974272;28;20039;-73
2020/12/19 02:36:44;;;;;;;27.27;20.20;;;;;;;;;;4974150;28;20038;-75
2020/12/19 02:39:09;;;;;;;36.80;21.67;;;;;;;;;;4989095;28;20042;-75
2020/12/19 02:41:36;;;;;;;33.03;20.00;;;;;;;;;;4974158;28;20042;-72
2020/12/19 02:44:02;;;;;;;31.08;22.27;;;;;;;;;;4974088;28;20042;-72
2020/12/19 02:46:28;;;;;;;28.25;20.40;;;;;;;;;;4973886;28;20050;-73
2020/12/19 02:48:54;;;;;;;32.05;21.42;;;;;;;;;;4973963;28;20035;-72
2020/12/19 02:51:20;;;;;;;29.52;20.80;;;;;;;;;;4974095;28;20075;-72
2020/12/19 02:53:45;;;;;;;31.02;21.38;;;;;;;;;;4973509;28;20038;-72
2020/12/19 02:56:10;;;;;;;30.70;21.23;;;;;;;;;;4974032;28;20041;-72
2020/12/19 02:58:36;;;;;;;32.88;20.58;;;;;;;;;;4973844;28;20038;-72
2020/12/19 03:01:01;;;;;;;32.15;20.70;;;;;;;;;;4974100;28;20396;-72
2020/12/19 03:03:27;;;;;;;29.65;20.23;;;;;;;;;;4973819;28;20038;-72
2020/12/19 03:05:52;;;;;;;30.90;20.63;;;;;;;;;;4973819;28;20046;-72
2020/12/19 03:08:17;;;;;;;29.83;20.85;;;;;;;;;;4975427;28;20041;-73
2020/12/19 03:10:43;;;;;;;30.42;20.02;;;;;;;;;;4977494;28;20040;-73
2020/12/19 03:13:08;;;;;;;28.48;21.00;;;;;;;;;;4977658;28;20046;-72
2020/12/19 03:15:34;;;;;;;27.25;19.15;;;;;;;;;;4976827;28;20377;-72
2020/12/19 03:17:59;;;;;;;30.23;19.70;;;;;;;;;;4977257;28;20073;-72
2020/12/19 03:20:24;;;;;;;30.10;20.23;;;;;;;;;;4992349;28;20034;-72
2020/12/19 03:22:50;;;;;;;29.13;20.05;;;;;;;;;;4977222;28;20046;-72
2020/12/19 03:25:15;;;;;;;27.05;19.42;;;;;;;;;;4977282;28;20046;-72
2020/12/19 03:27:41;;;;;;;29.13;19.10;;;;;;;;;;4977152;28;20124;-72
2020/12/19 03:30:06;;;;;;;28.77;18.60;;;;;;;;;;4992187;28;20600;-72
2020/12/19 03:32:32;;;;;;;29.40;19.30;;;;;;;;;;4977242;28;20452;-72
2020/12/19 03:34:57;;;;;;;27.00;18.38;;;;;;;;;;4976305;28;20034;-72
2020/12/19 03:37:23;;;;;;;25.55;17.33;;;;;;;;;;4976968;28;20049;-72
2020/12/19 03:39:48;;;;;;;26.00;19.70;;;;;;;;;;4977284;28;20070;-72
2020/12/19 03:42:14;;;;;;;22.80;17.25;;;;;;;;;;4976983;28;20034;-72
2020/12/19 03:44:39;;;;;;;27.30;18.48;;;;;;;;;;4977045;28;20535;-72
2020/12/19 03:47:04;;;;;;;26.30;18.35;;;;;;;;;;4976156;28;20039;-72
2020/12/19 03:49:30;;;;;;;25.80;18.70;;;;;;;;;;4992030;28;20188;-72
2020/12/19 03:51:55;;;;;;;45.35;29.05;;;;;;;;;;4991130;28;20051;-72
2020/12/19 03:54:21;;;;;;;52.50;30.77;;;;;;;;;;4976924;28;20039;-72
2020/12/19 03:56:46;;;;;;;45.90;27.23;;;;;;;;;;4976186;28;20085;-72
2020/12/19 03:59:12;;;;;;;39.33;25.05;;;;;;;;;;4976781;28;20074;-72
2020/12/19 04:01:38;;;;;;;36.05;23.45;;;;;;;;;;4991698;28;20050;-75
2020/12/19 04:04:03;;;;;;;32.95;22.88;;;;;;;;;;4976598;28;20043;-72
2020/12/19 04:06:29;;;;;;;28.45;20.85;;;;;;;;;;4976303;28;20046;-72
2020/12/19 04:08:54;;;;;;;31.10;21.10;;;;;;;;;;4976734;28;20039;-72
2020/12/19 04:11:20;;;;;;;28.33;20.05;;;;;;;;;;4976615;28;20035;-72
2020/12/19 04:13:45;;;;;;;24.95;19.10;;;;;;;;;;4976456;28;20046;-72
2020/12/19 04:16:11;;;;;;;23.85;17.55;;;;;;;;;;4976489;28;20101;-72
2020/12/19 04:18:36;;;;;;;25.95;16.98;;;;;;;;;;4990683;28;20137;-75
2020/12/19 04:21:05;;;;;;;22.13;15.80;;;;;;;;;;4975480;28;20042;-75
2020/12/19 04:23:31;;;;;;;23.35;15.95;;;;;;;;;;4976241;28;20473;-75
2020/12/19 04:25:56;;;;;;;22.73;16.75;;;;;;;;;;4976106;28;20038;-75
2020/12/19 04:28:21;;;;;;;21.50;15.98;;;;;;;;;;4975678;28;20469;-75
2020/12/19 04:30:47;;;;;;;21.50;16.13;;;;;;;;;;4976016;28;20043;-75
2020/12/19 04:33:12;;;;;;;24.23;15.95;;;;;;;;;;4976062;28;20043;-72
2020/12/19 04:35:37;;;;;;;26.77;17.77;;;;;;;;;;4975788;28;20050;-72
2020/12/19 04:38:03;;;;;;;25.48;17.63;;;;;;;;;;4975853;28;20045;-72
2020/12/19 04:40:28;;;;;;;21.02;15.65;;;;;;;;;;4975962;28;20121;-74
2020/12/19 04:42:54;;;;;;;25.48;16.98;;;;;;;;;;4976227;28;20038;-72
2020/12/19 04:45:20;;;;;;;22.58;16.85;;;;;;;;;;4975752;28;20042;-72
2020/12/19 04:47:45;;;;;;;23.80;16.10;;;;;;;;;;4975106;28;20057;-72
2020/12/19 04:50:12;;;;;;;34.15;21.35;;;;;;;;;;4975481;28;20041;-72
2020/12/19 04:52:37;;;;;;;27.77;18.83;;;;;;;;;;4975727;28;20046;-72
2020/12/19 04:55:03;;;;;;;26.17;18.77;;;;;;;;;;4975676;28;20043;-72
2020/12/19 04:57:28;;;;;;;23.38;16.73;;;;;;;;;;4990633;28;20038;-72
2020/12/19 04:59:53;;;;;;;24.23;16.42;;;;;;;;;;4975637;28;20042;-72
2020/12/19 05:02:19;;;;;;;24.00;16.55;;;;;;;;;;4974893;28;20038;-73
2020/12/19 05:04:44;;;;;;;23.95;16.38;;;;;;;;;;4975458;28;20038;-72
2020/12/19 05:07:11;;;;;;;21.88;14.88;;;;;;;;;;4975403;28;20038;-72
2020/12/19 05:09:42;;;;;;;22.00;15.50;;;;;;;;;;4975429;28;20035;-72
2020/12/19 05:12:09;;;;;;;21.58;15.13;;;;;;;;;;4975425;28;20039;-72
2020/12/19 05:14:35;;;;;;;26.45;16.65;;;;;;;;;;4975416;28;20596;-72
2020/12/19 05:17:00;;;;;;;21.30;15.45;;;;;;;;;;4975127;28;20105;-72
2020/12/19 05:19:27;;;;;;;18.55;13.80;;;;;;;;;;4975049;28;20055;-72
2020/12/19 05:21:54;;;;;;;20.48;14.23;;;;;;;;;;4989961;28;20045;-72
2020/12/19 05:24:27;;;;;;;21.38;14.07;;;;;;;;;;4989932;28;20030;-75
2020/12/19 05:26:52;;;;;;;18.77;14.23;;;;;;;;;;4974970;28;20042;-75
2020/12/19 05:29:18;;;;;;;25.08;16.33;;;;;;;;;;4990179;28;20046;-75
2020/12/19 05:31:50;;;;;;;29.25;18.55;;;;;;;;;;4974927;28;20041;-75
2020/12/19 05:34:16;;;;;;;25.00;16.60;;;;;;;;;;4974842;28;20039;-72
2020/12/19 05:36:41;;;;;;;22.40;15.35;;;;;;;;;;4974812;28;20035;-75
2020/12/19 05:39:07;;;;;;;23.70;15.95;;;;;;;;;;4974878;28;20039;-72
2020/12/19 05:41:37;;;;;;;26.85;14.43;;;;;;;;;;4975111;28;20041;-72
2020/12/19 05:44:02;;;;;;;17.95;12.75;;;;;;;;;;4974033;28;20376;-74
2020/12/19 05:46:36;;;;;;;21.23;14.23;;;;;;;;;;4974666;28;20039;-72
2020/12/19 05:49:04;;;;;;;19.42;13.85;;;;;;;;;;4974607;28;20126;-75
2020/12/19 05:51:33;;;;;;;19.05;13.00;;;;;;;;;;4974583;28;20481;-75
2020/12/19 05:54:07;;;;;;;18.75;12.90;;;;;;;;;;4974621;28;20449;-75
2020/12/19 05:56:41;;;;;;;23.60;16.05;;;;;;;;;;4974570;28;20117;-74
2020/12/19 05:59:11;;;;;;;39.65;21.35;;;;;;;;;;4974252;28;20031;-75
2020/12/19 06:01:41;;;;;;;24.20;16.77;;;;;;;;;;4955271;28;20443;-74
2020/12/19 06:04:08;;;;;;;35.35;20.55;;;;;;;;;;4955179;29;20081;-74
2020/12/19 06:06:37;;;;;;;29.10;16.75;;;;;;;;;;4955249;29;20474;-74
2020/12/19 06:09:05;;;;;;;28.40;18.02;;;;;;;;;;4954898;29;20035;-74
2020/12/19 06:11:38;;;;;;;32.40;19.42;;;;;;;;;;4954912;29;20042;-74
2020/12/19 06:14:07;;;;;;;28.40;18.17;;;;;;;;;;4955321;29;20046;-74
2020/12/19 06:16:38;;;;;;;26.77;16.30;;;;;;;;;;4954942;29;20473;-74
2020/12/19 06:19:11;;;;;;;29.45;17.23;;;;;;;;;;4970040;28;20170;-74
2020/12/19 06:21:37;;;;;;;28.70;16.67;;;;;;;;;;4974132;28;20390;-74
2020/12/19 06:24:03;;;;;;;33.15;17.92;;;;;;;;;;4974111;28;20491;-74
2020/12/19 06:26:36;;;;;;;28.75;16.25;;;;;;;;;;4974163;28;20035;-74
2020/12/19 06:29:03;;;;;;;27.23;17.02;;;;;;;;;;4974189;28;20089;-74
2020/12/19 06:31:28;;;;;;;26.17;16.73;;;;;;;;;;4974356;28;20389;-74
2020/12/19 06:33:54;;;;;;;27.88;17.13;;;;;;;;;;4974246;28;20038;-74
2020/12/19 06:36:21;;;;;;;31.83;17.77;;;;;;;;;;4974026;28;20403;-75
2020/12/19 06:38:48;;;;;;;30.42;19.63;;;;;;;;;;4974104;28;20081;-74
2020/12/19 06:41:50;;;;;;;25.73;16.98;;;;;;;;;;4973844;28;20056;-75
2020/12/19 06:44:24;;;;;;;34.25;19.30;;;;;;;;;;4970531;28;20047;-75
2020/12/19 06:46:50;;;;;;;28.58;17.05;;;;;;;;;;4977948;28;20094;-75
2020/12/19 06:49:25;;;;;;;35.13;19.38;;;;;;;;;;4961105;28;20078;-75
2020/12/19 06:52:10;;;;;;;33.97;19.23;;;;;;;;;;4958728;28;20462;-76
2020/12/19 06:54:47;;;;;;;29.73;17.67;;;;;;;;;;4973382;28;20394;-75
2020/12/19 06:57:33;;;;;;;27.88;17.42;;;;;;;;;;4958390;28;20392;-75
2020/12/19 07:00:24;;;;;;;31.27;18.35;;;;;;;;;;4958527;28;20497;-74
2020/12/19 07:02:54;;;;;;;28.33;16.25;;;;;;;;;;4967348;28;20061;-75
2020/12/19 07:05:22;;;;;;;24.73;15.52;;;;;;;;;;4976352;28;20043;-75
2020/12/19 07:07:48;;;;;;;24.23;15.88;;;;;;;;;;4976261;28;20485;-77
2020/12/19 07:10:14;;;;;;;22.90;15.35;;;;;;;;;;4976158;28;20053;-75
2020/12/19 07:12:41;;;;;;;26.38;15.25;;;;;;;;;;4977536;28;20038;-75
2020/12/19 07:15:09;;;;;;;27.23;16.75;;;;;;;;;;4992509;28;20042;-74
2020/12/19 07:17:49;;;;;;;31.30;17.70;;;;;;;;;;4977220;28;20481;-75
2020/12/19 07:20:22;;;;;;;32.08;17.85;;;;;;;;;;4977090;28;20075;-74
2020/12/19 07:22:49;;;;;;;46.85;19.77;;;;;;;;;;4977344;28;20080;-75
2020/12/19 07:25:14;;;;;;;32.08;19.77;;;;;;;;;;4977210;28;20488;-74
2020/12/19 07:27:39;;;;;;;31.60;19.77;;;;;;;;;;4965377;28;20038;-72
2020/12/19 07:30:05;;;;;;;41.42;18.15;;;;;;;;;;4957661;28;20047;-72
2020/12/19 07:32:30;;;;;;;97.75;20.98;;;;;;;;;;4964295;28;20058;-74
2020/12/19 07:34:57;;;;;;;29.90;18.38;;;;;;;;;;4977084;28;20046;-73
2020/12/19 07:37:24;;;;;;;32.47;20.88;;;;;;;;;;4976884;28;20035;-73
2020/12/19 07:39:49;;;;;;;55.30;20.00;;;;;;;;;;4977133;28;20038;-74
2020/12/19 07:42:15;;;;;;;27.85;18.55;;;;;;;;;;4976963;28;20042;-73
2020/12/19 07:44:41;;;;;;;34.28;20.35;;;;;;;;;;4976975;28;20054;-73
2020/12/19 07:47:08;;;;;;;34.88;20.50;;;;;;;;;;4991908;28;20035;-74
2020/12/19 07:49:47;;;;;;;31.88;19.80;;;;;;;;;;4976878;28;20047;-73
2020/12/19 07:52:13;;;;;;;30.10;17.95;;;;;;;;;;4976822;28;20085;-75
2020/12/19 07:54:39;;;;;;;32.55;18.33;;;;;;;;;;4975544;28;20042;-74
2020/12/19 07:57:05;;;;;;;29.67;17.13;;;;;;;;;;4976641;28;20027;-73
2020/12/19 07:59:34;;;;;;;29.10;17.92;;;;;;;;;;4976167;28;20108;-74
2020/12/19 08:02:04;;;;;;;32.40;17.95;;;;;;;;;;4991710;28;20069;-72
2020/12/19 08:04:33;;;;;;;30.67;18.05;;;;;;;;;;4976649;28;20047;-74
2020/12/19 08:06:59;;;;;;;41.20;19.77;;;;;;;;;;4991403;28;20039;-73
2020/12/19 08:09:25;;;;;;;34.65;19.17;;;;;;;;;;4976527;28;20043;-72
2020/12/19 08:11:52;;;;;;;36.45;20.33;;;;;;;;;;4976565;28;20118;-74
2020/12/19 08:14:19;;;;;;;35.88;19.83;;;;;;;;;;4976724;28;20439;-74
2020/12/19 08:16:45;;;;;;;39.22;21.42;;;;;;;;;;4976281;28;20128;-74
2020/12/19 08:19:14;;;;;;;38.50;23.15;;;;;;;;;;4975493;28;20047;-74
2020/12/19 08:21:42;;;;;;;40.00;22.02;;;;;;;;;;4976074;28;20035;-74
2020/12/19 08:24:07;;;;;;;40.75;22.50;;;;;;;;;;4975070;28;20039;-74
2020/12/19 08:26:33;;;;;;;35.63;21.30;;;;;;;;;;4975992;28;20035;-74
2020/12/19 08:29:06;;;;;;;40.47;22.15;;;;;;;;;;4991077;28;20053;-73
2020/12/19 08:31:39;;;;;;;33.72;20.38;;;;;;;;;;4976192;28;20047;-73
2020/12/19 08:34:10;;;;;;;34.28;20.05;;;;;;;;;;4975993;28;20075;-74
2020/12/19 08:36:36;;;;;;;35.50;20.88;;;;;;;;;;4974675;28;20473;-73
2020/12/19 08:39:18;;;;;;;33.97;20.17;;;;;;;;;;4974484;28;20121;-73
2020/12/19 08:41:44;;;;;;;30.88;19.65;;;;;;;;;;4990994;28;20039;-74
2020/12/19 08:44:26;;;;;;;29.10;19.40;;;;;;;;;;4975952;28;20038;-74
2020/12/19 08:47:04;;;;;;;33.38;20.52;;;;;;;;;;4972703;28;20098;-73
2020/12/19 08:49:31;;;;;;;31.40;18.90;;;;;;;;;;4965416;28;20037;-74
2020/12/19 08:51:57;;;;;;;29.38;18.60;;;;;;;;;;4965728;28;20094;-74
2020/12/19 08:54:23;;;;;;;29.15;17.98;;;;;;;;;;4959153;28;20035;-73
2020/12/19 08:56:52;;;;;;;27.08;17.13;;;;;;;;;;4964407;28;20031;-74
2020/12/19 08:59:27;;;;;;;29.33;18.15;;;;;;;;;;4973450;28;20041;-76
2020/12/19 09:01:54;;;;;;;26.17;17.17;;;;;;;;;;4974879;28;20050;-75
2020/12/19 09:04:20;;;;;;;26.75;17.77;;;;;;;;;;4975011;28;20444;-75
2020/12/19 09:06:47;;;;;;;26.80;18.05;;;;;;;;;;4974758;28;20042;-75
2020/12/19 09:09:26;;;;;;;24.48;17.45;;;;;;;;;;4975007;28;20046;-75
2020/12/19 09:12:08;;;;;;;28.35;18.42;;;;;;;;;;4989651;28;20129;-74
2020/12/19 09:14:34;;;;;;;40.47;20.80;;;;;;;;;;4975041;28;20130;-74
2020/12/19 09:16:59;;;;;;;31.92;19.50;;;;;;;;;;4975168;28;20125;-74
2020/12/19 09:19:25;;;;;;;48.13;22.58;;;;;;;;;;4974932;28;20050;-74
2020/12/19 09:21:58;;;;;;;34.53;21.48;;;;;;;;;;4975035;28;20078;-77
2020/12/19 09:24:24;;;;;;;36.45;21.88;;;;;;;;;;4976645;28;20039;-77
2020/12/19 09:26:50;;;;;;;33.92;20.83;;;;;;;;;;4976798;28;20089;-78
2020/12/19 09:29:16;;;;;;;30.13;20.20;;;;;;;;;;4976988;28;20440;-78
2020/12/19 09:31:42;;;;;;;32.35;19.40;;;;;;;;;;4978043;28;20045;-77
2020/12/19 09:34:07;;;;;;;36.95;21.45;;;;;;;;;;4975489;28;20031;-78
2020/12/19 09:36:33;;;;;;;31.40;19.40;;;;;;;;;;4975366;28;20030;-78
2020/12/19 09:38:58;;;;;;;26.70;18.95;;;;;;;;;;4975676;28;20042;-77
2020/12/19 09:41:24;;;;;;;28.15;18.58;;;;;;;;;;4990813;28;20121;-77
2020/12/19 09:43:49;;;;;;;31.67;19.02;;;;;;;;;;4975583;28;20053;-77
2020/12/19 09:46:15;;;;;;;28.25;19.75;;;;;;;;;;4989767;28;20028;-76
2020/12/19 09:48:41;;;;;;;39.83;20.73;;;;;;;;;;4989682;28;20035;-76
2020/12/19 09:51:07;;;;;;;35.72;21.17;;;;;;;;;;4972001;28;20096;-75
2020/12/19 09:53:34;;;;;;;34.22;21.65;;;;;;;;;;4955310;28;20043;-75
2020/12/19 09:55:59;;;;;;;27.80;18.83;;;;;;;;;;4955850;29;20042;-76
2020/12/19 09:58:24;;;;;;;24.45;17.48;;;;;;;;;;4955230;28;20035;-74
2020/12/19 10:00:50;;;;;;;20.55;14.40;;;;;;;;;;4955449;28;20496;-78
2020/12/19 10:03:15;;;;;;;26.67;15.73;;;;;;;;;;4956003;28;20374;-75
2020/12/19 10:05:41;;;;;;;22.77;15.93;;;;;;;;;;4956033;28;20051;-76
2020/12/19 10:08:06;;;;;;;28.15;19.30;;;;;;;;;;4955288;28;20038;-77
2020/12/19 10:10:34;;;;;;;30.50;19.88;;;;;;;;;;4955332;28;20089;-76
2020/12/19 10:13:02;;;;;;;28.38;18.15;;;;;;;;;;4955282;28;20397;-74
2020/12/19 10:15:28;;;;;;;42.85;25.13;;;;;;;;;;4955200;28;20126;-73
2020/12/19 10:17:53;;;;;;;38.63;23.80;;;;;;;;;;4957936;28;20130;-74
2020/12/19 10:20:19;;;;;;;42.08;24.00;;;;;;;;;;4974264;28;20068;-75
2020/12/19 10:22:46;;;;;;;35.40;23.33;;;;;;;;;;4989240;28;20101;-76
2020/12/19 10:25:11;;;;;;;37.60;23.20;;;;;;;;;;4974276;28;20358;-74
2020/12/19 10:27:37;;;;;;;47.90;35.13;;;;;;;;;;4974191;28;20042;-75
2020/12/19 10:30:03;;;;;;;35.97;24.13;;;;;;;;;;4974380;28;20057;-75
2020/12/19 10:32:29;;;;;;;31.55;22.40;;;;;;;;;;4988289;28;20035;-75
2020/12/19 10:34:55;;;;;;;25.38;19.67;;;;;;;;;;4974235;28;20082;-75
2020/12/19 10:37:20;;;;;;;26.38;18.95;;;;;;;;;;4974008;28;20089;-75
2020/12/19 10:39:45;;;;;;;26.95;18.58;;;;;;;;;;4974142;28;20484;-76
2020/12/19 10:42:12;;;;;;;24.65;17.23;;;;;;;;;;4975102;28;20049;-78
2020/12/19 10:44:37;;;;;;;24.05;16.67;;;;;;;;;;4990204;28;20037;-75
2020/12/19 10:47:03;;;;;;;28.98;19.88;;;;;;;;;;4973359;28;20031;-76
2020/12/19 10:49:28;;;;;;;27.08;18.83;;;;;;;;;;4974258;28;20393;-76
2020/12/19 10:51:53;;;;;;;24.75;17.83;;;;;;;;;;4974275;28;20109;-74
2020/12/19 10:54:19;;;;;;;22.67;16.83;;;;;;;;;;4974089;28;20046;-76
2020/12/19 10:56:44;;;;;;;24.88;16.83;;;;;;;;;;4974056;28;20109;-74
2020/12/19 10:59:09;;;;;;;23.88;17.92;;;;;;;;;;4974089;28;20093;-75
2020/12/19 11:01:35;;;;;;;20.95;15.38;;;;;;;;;;4974296;28;20070;-75
2020/12/19 11:04:00;;;;;;;26.40;19.10;;;;;;;;;;4973993;28;20080;-77
2020/12/19 11:06:27;;;;;;;25.88;17.98;;;;;;;;;;4973747;28;20066;-77
2020/12/19 11:08:54;;;;;;;22.83;17.15;;;;;;;;;;4974064;28;20034;-76
2020/12/19 11:11:20;;;;;;;24.48;16.17;;;;;;;;;;4973685;28;20546;-76
2020/12/19 11:13:46;;;;;;;21.10;15.38;;;;;;;;;;4989065;28;20047;-76
2020/12/19 11:16:23;;;;;;;23.33;15.50;;;;;;;;;;4989228;28;20097;-77
2020/12/19 11:18:48;;;;;;;;;;;;;;;;;;4974436;28;20051;-76
2020/12/19 11:21:13;;;;;;;21.23;14.97;;;;;;;;;;4973570;28;20371;-75
2020/12/19 11:23:39;;;;;;;24.48;15.60;;;;;;;;;;4963075;28;20114;-76
2020/12/19 11:26:04;;;;;;;19.10;14.15;;;;;;;;;;4974455;28;20133;-79
2020/12/19 11:28:30;;;;;;;22.98;13.75;;;;;;;;;;4973989;28;20037;-75
2020/12/19 11:30:55;;;;;;;19.50;13.98;;;;;;;;;;4963448;28;20090;-80
2020/12/19 11:33:21;;;;;;;16.40;12.98;;;;;;;;;;4961144;28;20043;-78
2020/12/19 11:35:46;;;;;;;19.52;14.68;;;;;;;;;;4960174;28;20042;-78
2020/12/19 11:38:11;;;;;;;16.35;12.85;;;;;;;;;;4960075;28;20039;-78
2020/12/19 11:40:37;;;;;;;17.15;13.15;;;;;;;;;;4960605;28;20054;-78
2020/12/19 11:43:02;;;;;;;17.80;13.18;;;;;;;;;;4961155;28;20046;-79
2020/12/19 11:45:28;;;;;;;20.30;13.52;;;;;;;;;;4958691;28;20047;-80
2020/12/19 11:47:53;;;;;;;21.20;14.30;;;;;;;;;;4961697;28;20023;-75
2020/12/19 11:50:18;;;;;;;18.88;13.95;;;;;;;;;;4977055;28;20042;-75
2020/12/19 11:52:44;;;;;;;19.15;13.68;;;;;;;;;;4977015;28;20084;-78
2020/12/19 11:55:09;;;;;;;18.98;13.77;;;;;;;;;;4992226;28;20125;-76
2020/12/19 11:57:37;;;;;;;23.08;15.90;;;;;;;;;;4976673;28;20030;-75
2020/12/19 12:00:03;;;;;;;19.98;14.68;;;;;;;;;;4976726;28;20038;-75
2020/12/19 12:02:29;;;;;;;23.17;14.23;;;;;;;;;;4976439;28;20178;-73
2020/12/19 12:04:55;;;;;;;18.45;13.23;;;;;;;;;;4976396;28;20125;-73
2020/12/19 12:07:21;;;;;;;19.52;13.88;;;;;;;;;;4958525;28;20038;-72
2020/12/19 12:09:46;;;;;;;18.88;13.05;;;;;;;;;;4974859;28;20046;-74
2020/12/19 12:12:12;;;;;;;19.13;13.13;;;;;;;;;;4976385;28;20366;-75
2020/12/19 12:14:37;;;;;;;17.25;12.90;;;;;;;;;;4976393;28;20110;-75
2020/12/19 12:17:02;;;;;;;16.88;12.10;;;;;;;;;;4976172;28;20030;-75
2020/12/19 12:19:28;;;;;;;15.43;11.23;;;;;;;;;;4975633;28;20043;-75
2020/12/19 12:21:53;;;;;;;15.23;11.57;;;;;;;;;;4976329;28;20035;-75
2020/12/19 12:24:18;;;;;;;13.07;9.77;;;;;;;;;;4976364;28;20400;-75
2020/12/19 12:26:44;;;;;;;13.65;9.60;;;;;;;;;;4976109;28;20035;-75
2020/12/19 12:29:09;;;;;;;15.82;9.80;;;;;;;;;;4976283;28;20093;-73
2020/12/19 12:31:35;;;;;;;15.85;10.57;;;;;;;;;;4976173;28;20041;-73
2020/12/19 12:34:00;;;;;;;16.85;10.02;;;;;;;;;;4975641;28;20409;-73
2020/12/19 12:36:27;;;;;;;14.60;9.95;;;;;;;;;;4990788;28;20035;-73
2020/12/19 12:38:54;;;;;;;13.43;9.77;;;;;;;;;;4975943;28;20046;-73
2020/12/19 12:41:19;;;;;;;14.50;9.75;;;;;;;;;;4975132;28;20039;-72
2020/12/19 12:43:45;;;;;;;22.02;12.90;;;;;;;;;;4975982;28;20381;-73
2020/12/19 12:46:12;;;;;;;62.47;38.03;;;;;;;;;;4975411;28;20045;-74
2020/12/19 12:48:37;;;;;;;21.95;14.50;;;;;;;;;;4975771;28;20039;-72
2020/12/19 12:51:06;;;;;;;18.63;12.32;;;;;;;;;;4975433;28;20053;-72
2020/12/19 12:53:31;;;;;;;14.80;11.10;;;;;;;;;;4975727;28;20178;-74
2020/12/19 12:55:58;;;;;;;15.70;11.40;;;;;;;;;;4975575;28;20064;-74
2020/12/19 12:58:24;;;;;;;17.15;12.55;;;;;;;;;;4975543;28;20186;-75
2020/12/19 13:00:49;;;;;;;19.92;11.82;;;;;;;;;;4975547;28;20492;-75
2020/12/19 13:03:15;;;;;;;16.88;11.10;;;;;;;;;;4975813;28;20038;-74
2020/12/19 13:05:40;;;;;;;15.60;10.98;;;;;;;;;;4975450;28;20074;-74
2020/12/19 13:08:05;;;;;;;15.20;10.35;;;;;;;;;;4975255;28;20035;-74
2020/12/19 13:10:31;;;;;;;17.63;10.32;;;;;;;;;;4975443;28;20039;-74
2020/12/19 13:12:56;;;;;;;14.93;10.13;;;;;;;;;;4975145;28;20496;-75
2020/12/19 13:15:21;;;;;;;14.73;8.45;;;;;;;;;;4975313;28;20077;-75
2020/12/19 13:17:47;;;;;;;10.82;7.75;;;;;;;;;;4973966;28;20050;-74
2020/12/19 13:20:12;;;;;;;11.07;7.47;;;;;;;;;;4975132;28;20177;-74
2020/12/19 13:22:38;;;;;;;9.55;6.50;;;;;;;;;;4974714;28;20034;-75
2020/12/19 13:25:03;;;;;;;8.68;5.65;;;;;;;;;;4974725;28;20035;-73
2020/12/19 13:27:28;;;;;;;6.50;4.80;;;;;;;;;;4974923;28;20062;-74
2020/12/19 13:29:54;;;;;;;10.93;6.82;;;;;;;;;;4975075;28;20047;-74
2020/12/19 13:32:19;;;;;;;14.00;9.45;;;;;;;;;;4974739;28;20047;-75
2020/12/19 13:34:44;;;;;;;14.75;8.95;;;;;;;;;;4974730;28;20081;-74
2020/12/19 13:37:10;;;;;;;12.95;7.25;;;;;;;;;;4974994;28;20159;-74
2020/12/19 13:39:36;;;;;;;10.60;7.05;;;;;;;;;;4989640;28;20046;-74
2020/12/19 13:42:02;;;;;;;8.27;6.03;;;;;;;;;;4974528;28;20034;-73
2020/12/19 13:44:27;;;;;;;8.07;5.25;;;;;;;;;;4974619;28;20066;-73
2020/12/19 13:46:54;;;;;;;7.50;5.05;;;;;;;;;;4974050;28;20062;-72
2020/12/19 13:49:20;;;;;;;7.32;4.70;;;;;;;;;;4974687;28;20461;-72
2020/12/19 13:51:45;;;;;;;8.55;4.45;;;;;;;;;;4973382;28;20122;-73
2020/12/19 13:54:10;;;;;;;5.97;3.95;;;;;;;;;;4974552;28;20689;-73
2020/12/19 13:56:39;;;;;;;11.15;4.88;;;;;;;;;;4974508;28;20038;-74
2020/12/19 13:59:05;;;;;;;5.63;4.00;;;;;;;;;;4974717;28;20037;-74
2020/12/19 14:01:37;;;;;;;11.65;5.22;;;;;;;;;;4974619;28;20042;-72
2020/12/19 14:04:03;;;;;;;13.75;7.93;;;;;;;;;;4974830;28;20035;-73
2020/12/19 14:06:29;;;;;;;14.43;5.47;;;;;;;;;;4974222;28;20480;-74
2020/12/19 14:08:55;;;;;;;7.43;4.53;;;;;;;;;;4974640;28;20038;-73
2020/12/19 14:11:28;;;;;;;10.38;4.20;;;;;;;;;;4973342;28;20166;-74
2020/12/19 14:13:55;;;;;;;7.00;4.13;;;;;;;;;;4973272;28;20124;-73
2020/12/19 14:16:34;;;;;;;6.43;3.78;;;;;;;;;;4974472;28;20026;-73